Time;durP1;ratioP1;P1;durP2;ratioP2;P2;SDS_P1;SDS_P2;PMS_P1;PMS_P2;Temp;Humidity;BMP_temperature;BMP_pressure;BME280_temperature;BME280_humidity;BME280_pressure;Samples;Min_cycle;Max_cycle;Signal;HPM_P1;HPM_P2
2021/04/21 00:01:41;;;;;;;62.50;32.13;;;;;;;1.23;63.49;99255.98;1667434;84;21174;-68
2021/04/21 00:04:09;;;;;;;54.95;32.42;;;;;;;1.21;63.49;99252.63;1672414;84;21210;-67
2021/04/21 00:06:40;;;;;;;57.95;34.53;;;;;;;1.19;63.55;99254.36;1672597;84;22282;-68
2021/04/21 00:09:15;;;;;;;68.97;34.63;;;;;;;1.19;63.58;99246.64;1675260;84;21289;-68
2021/04/21 00:11:43;;;;;;;63.52;35.05;;;;;;;1.16;63.62;99250.11;1675457;85;21203;-68
2021/04/21 00:16:56;;;;;;;71.62;37.30;;;;;;;1.21;63.91;99246.19;1822139;77;22623;-67
2021/04/21 00:19:26;;;;;;;65.62;38.75;;;;;;;1.14;63.81;99248.44;1801403;78;21096;-68
2021/04/21 00:21:56;;;;;;;60.98;38.88;;;;;;;1.09;63.85;99240.78;1796038;78;21811;-68
2021/04/21 00:24:23;;;;;;;69.40;38.70;;;;;;;1.03;63.93;99244.31;1801323;78;21017;-68
2021/04/21 00:26:51;;;;;;;65.08;37.67;;;;;;;0.98;64.13;99241.40;1761491;80;21029;-68
2021/04/21 00:29:18;;;;;;;;;;;;;;;0.92;64.12;99238.48;1765233;80;21042;-68
2021/04/21 00:31:49;;;;;;;60.98;36.05;;;;;;;0.87;64.33;99237.74;1727379;81;20317;-68
2021/04/21 00:34:21;;;;;;;61.20;37.78;;;;;;;0.82;64.24;99234.39;1762228;80;21649;-68
2021/04/21 00:36:52;;;;;;;65.35;37.58;;;;;;;0.78;64.35;99235.30;1765271;80;21065;-68
2021/04/21 00:39:20;;;;;;;59.48;34.38;;;;;;;0.74;64.31;99237.51;1757172;78;21772;-68
2021/04/21 00:42:07;;;;;;;66.28;35.45;;;;;;;0.66;64.28;99238.46;1763656;78;21158;-67
2021/04/21 00:45:01;;;;;;;58.10;34.48;;;;;;;0.61;64.45;99232.97;1745553;80;21184;-68
2021/04/21 00:47:43;;;;;;;51.68;34.53;;;;;;;0.58;64.63;99240.29;1734650;80;21203;-69
2021/04/21 00:50:16;;;;;;;55.30;34.25;;;;;;;0.59;64.77;99239.87;1743844;80;21007;-69
2021/04/21 00:53:06;;;;;;;56.92;33.92;;;;;;;0.59;64.79;99230.45;1742855;80;21241;-68
2021/04/21 00:55:37;;;;;;;56.85;33.30;;;;;;;0.57;64.87;99227.48;1739432;81;21266;-68
2021/04/21 00:58:43;;;;;;;52.62;32.95;;;;;;;0.54;64.87;99227.09;1737762;81;21231;-68
2021/04/21 01:01:12;;;;;;;54.90;32.93;;;;;;;0.52;64.98;99230.11;1748163;80;21579;-68
2021/04/21 01:03:42;;;;;;;46.80;29.20;;;;;;;0.49;65.00;99227.59;1763837;78;21248;-68
2021/04/21 01:06:16;;;;;;;52.27;31.87;;;;;;;0.46;65.02;99233.21;1730545;81;21675;-68
2021/04/21 01:08:49;;;;;;;56.42;34.80;;;;;;;0.43;65.21;99231.53;1739844;80;21645;-67
2021/04/21 01:11:31;;;;;;;52.60;31.27;;;;;;;0.44;65.35;99226.36;1748928;80;21163;-69
2021/04/21 01:14:03;;;;;;;51.25;29.82;;;;;;;0.38;65.22;99221.75;1742667;81;21206;-69
2021/04/21 01:16:32;;;;;;;49.33;33.08;;;;;;;0.29;65.25;99226.58;1731352;81;21191;-68
2021/04/21 01:19:21;;;;;;;58.58;34.38;;;;;;;0.25;65.38;99222.34;1735627;81;21244;-68
2021/04/21 01:21:52;;;;;;;48.33;31.12;;;;;;;0.23;65.41;99220.70;1767728;80;21172;-69
2021/04/21 01:24:36;;;;;;;45.08;28.75;;;;;;;0.23;65.57;99212.99;1742796;80;21262;-69
2021/04/21 01:27:15;;;;;;;46.90;28.38;;;;;;;0.16;65.65;99213.05;1742733;80;21409;-69
2021/04/21 01:29:52;;;;;;;49.23;28.42;;;;;;;0.14;65.76;99214.81;1678444;84;21192;-68
2021/04/21 01:32:31;;;;;;;49.30;29.87;;;;;;;0.13;65.90;99210.52;1807934;77;27876;-67
2021/04/21 01:35:00;;;;;;;50.48;27.65;;;;;;;0.10;65.55;99213.13;1803721;78;21040;-68
2021/04/21 01:37:31;;;;;;;50.00;27.50;;;;;;;0.09;65.79;99206.31;1793140;78;21190;-68
2021/04/21 01:40:12;;;;;;;47.73;28.20;;;;;;;0.07;65.96;99206.77;1797786;77;21362;-68
2021/04/21 01:42:43;;;;;;;43.58;26.42;;;;;;;0.05;66.03;99205.92;1795551;78;21163;-68
2021/04/21 01:45:15;;;;;;;56.10;28.65;;;;;;;0.01;66.10;99208.13;1802281;78;21013;-68
2021/04/21 01:47:44;;;;;;;45.20;27.85;;;;;;;-0.01;66.22;99207.29;1797585;78;20990;-68
2021/04/21 01:50:15;;;;;;;49.45;28.67;;;;;;;-0.04;66.29;99202.20;1795273;78;22212;-68
2021/04/21 01:52:54;;;;;;;50.38;28.07;;;;;;;-0.04;66.40;99206.05;1800077;78;21092;-68
2021/04/21 01:55:35;;;;;;;42.73;26.65;;;;;;;-0.04;66.44;99205.61;1769674;80;21099;-68
2021/04/21 01:58:26;;;;;;;43.73;26.20;;;;;;;-0.01;66.56;99205.56;1735989;81;21222;-68
2021/04/21 02:01:32;;;;;;;42.98;25.32;;;;;;;0.06;66.69;99198.66;1828379;77;22474;-66
2021/04/21 02:04:16;;;;;;;45.40;26.93;;;;;;;0.01;66.60;99197.86;1725318;81;21248;-67
2021/04/21 02:07:03;;;;;;;47.90;26.62;;;;;;;0.07;66.88;99196.93;1825405;77;24380;-67
2021/04/21 02:10:03;;;;;;;42.33;24.92;;;;;;;0.00;66.81;99189.76;1800367;78;20980;-68
2021/04/21 02:12:47;;;;;;;43.60;26.68;;;;;;;-0.03;66.80;99188.48;1794414;78;21060;-68
2021/04/21 02:15:28;;;;;;;40.83;24.90;;;;;;;-0.01;66.97;99190.61;1796233;78;21025;-68
2021/04/21 02:18:10;;;;;;;44.63;25.95;;;;;;;0.01;67.01;99181.17;1803805;78;21683;-68
2021/04/21 02:21:15;;;;;;;40.33;26.20;;;;;;;0.01;66.99;99177.33;1797947;77;21204;-68
2021/04/21 02:24:24;;;;;;;42.62;27.20;;;;;;;-0.04;66.96;99181.22;1801675;78;21049;-68
2021/04/21 02:27:26;;;;;;;47.08;27.48;;;;;;;-0.03;67.03;99184.23;1797619;78;22562;-68
2021/04/21 02:30:17;;;;;;;42.88;26.82;;;;;;;-0.05;67.09;99183.83;1763105;80;21072;-68
2021/04/21 02:33:10;;;;;;;50.52;26.17;;;;;;;-0.11;67.10;99187.73;1719061;82;22435;-68
2021/04/21 02:35:49;;;;;;;39.15;26.07;;;;;;;-0.19;67.13;99181.88;1714473;82;21222;-68
2021/04/21 02:38:38;;;;;;;37.88;25.85;;;;;;;-0.20;67.31;99182.72;1765389;80;21155;-68
2021/04/21 02:41:19;;;;;;;48.52;26.00;;;;;;;-0.27;67.25;99182.80;1762645;79;21201;-68
2021/04/21 02:44:20;;;;;;;45.80;25.82;;;;;;;-0.34;67.33;99178.60;1765558;80;21176;-69
2021/04/21 02:47:14;;;;;;;41.02;25.60;;;;;;;-0.39;67.37;99180.39;1760800;80;21247;-68
2021/04/21 02:49:58;;;;;;;54.60;24.67;;;;;;;-0.43;67.49;99176.15;1764566;80;21296;-66
2021/04/21 02:52:51;;;;;;;47.53;25.20;;;;;;;-0.50;67.48;99177.11;1762429;79;21667;-69
2021/04/21 02:55:55;;;;;;;50.55;28.20;;;;;;;-0.54;67.61;99166.45;1827811;77;22830;-67
2021/04/21 02:58:58;;;;;;;45.33;27.22;;;;;;;-0.60;67.59;99172.93;1805509;77;21566;-68
2021/04/21 03:01:52;;;;;;;47.08;31.12;;;;;;;-0.62;67.72;99164.40;1804191;77;21607;-68
2021/04/21 03:04:37;;;;;;;45.65;29.87;;;;;;;-0.68;67.80;99163.59;1809618;78;21009;-68
2021/04/21 03:07:08;;;;;;;47.25;32.05;;;;;;;-0.63;67.92;99162.71;1809839;77;21670;-68
2021/04/21 03:09:44;;;;;;;49.45;31.02;;;;;;;-0.65;67.89;99161.88;1809304;77;21042;-68
2021/04/21 03:12:13;;;;;;;48.55;30.92;;;;;;;-0.69;67.97;99159.34;1808827;78;21140;-68
2021/04/21 03:14:45;;;;;;;50.92;30.75;;;;;;;-0.73;68.00;99160.26;1806689;78;21399;-68
2021/04/21 03:17:12;;;;;;;52.48;29.42;;;;;;;-0.72;68.06;99159.38;1806885;77;21096;-68
2021/04/21 03:19:52;;;;;;;50.25;29.30;;;;;;;-0.72;68.16;99155.97;1812222;78;21025;-68
2021/04/21 03:22:23;;;;;;;43.50;27.73;;;;;;;-0.73;68.23;99149.13;1809976;78;21025;-68
2021/04/21 03:25:10;;;;;;;49.18;28.10;;;;;;;-0.76;68.25;99152.56;1811998;77;21563;-69
2021/04/21 03:27:43;;;;;;;41.85;27.35;;;;;;;-0.75;68.36;99146.59;1808794;78;22197;-68
2021/04/21 03:30:14;;;;;;;50.30;28.25;;;;;;;-0.75;68.40;99146.59;1813024;77;21594;-68
2021/04/21 03:32:52;;;;;;;50.90;28.50;;;;;;;-0.72;68.46;99144.00;1781848;78;21215;-69
2021/04/21 03:35:23;;;;;;;51.75;28.27;;;;;;;-0.64;68.51;99153.30;1813374;78;21150;-69
2021/04/21 03:38:09;;;;;;;41.73;24.72;;;;;;;-0.57;68.55;99147.25;1809485;77;21146;-68
2021/04/21 03:40:38;;;;;;;44.98;27.77;;;;;;;-0.57;68.54;99142.13;1813384;77;21404;-68
2021/04/21 03:43:07;;;;;;;48.08;26.85;;;;;;;-0.53;68.61;99145.09;1814313;77;21051;-68
2021/04/21 03:45:34;;;;;;;46.75;29.85;;;;;;;-0.45;68.59;99141.97;1814106;78;21538;-69
2021/04/21 03:48:03;;;;;;;46.77;28.42;;;;;;;-0.41;68.59;99138.52;1813555;78;21190;-68
2021/04/21 03:50:31;;;;;;;59.90;29.23;;;;;;;-0.19;68.83;99133.97;1815077;78;21119;-68
2021/04/21 03:53:07;;;;;;;48.55;24.67;;;;;;;0.15;68.78;99147.17;1811466;78;21225;-69
2021/04/21 03:55:37;;;;;;;46.40;25.20;;;;;;;0.59;68.81;99137.95;1809507;77;20993;-68
2021/04/21 03:58:08;;;;;;;38.65;22.55;;;;;;;0.97;68.69;99135.60;1810569;77;21183;-68
2021/04/21 04:00:40;;;;;;;47.03;24.65;;;;;;;1.41;68.51;99134.78;1806370;77;21190;-68
2021/04/21 04:03:12;;;;;;;38.55;22.75;;;;;;;1.86;68.50;99131.30;1804612;77;22255;-67
2021/04/21 04:05:50;;;;;;;40.70;23.95;;;;;;;2.33;68.23;99135.40;1799727;77;21206;-68
2021/04/21 04:08:18;;;;;;;41.28;23.87;;;;;;;2.88;68.12;99139.64;1804366;77;21216;-68
2021/04/21 04:10:52;;;;;;;38.00;21.42;;;;;;;3.35;67.83;99146.14;1801223;77;21190;-68
2021/04/21 04:13:20;;;;;;;30.50;19.45;;;;;;;3.81;67.51;99137.12;1802849;79;21182;-68
2021/04/21 04:15:48;;;;;;;46.35;19.48;;;;;;;4.25;67.15;99127.62;1802282;77;21187;-68
2021/04/21 04:18:16;;;;;;;38.28;19.42;;;;;;;4.64;66.91;99130.67;1804288;77;21184;-69
2021/04/21 04:20:44;;;;;;;41.60;18.73;;;;;;;5.04;66.92;99131.95;1800279;79;21160;-68
2021/04/21 04:23:12;;;;;;;33.85;19.35;;;;;;;5.51;66.64;99130.72;1801890;79;21653;-68
2021/04/21 04:25:47;;;;;;;40.75;19.20;;;;;;;5.98;66.44;99119.08;1804111;79;20989;-68
2021/04/21 04:28:14;;;;;;;32.78;17.90;;;;;;;6.41;65.87;99114.84;1802775;78;21199;-68
2021/04/21 04:30:42;;;;;;;34.50;19.45;;;;;;;6.78;65.48;99123.72;1804013;78;21783;-68
2021/04/21 04:33:10;;;;;;;29.90;18.77;;;;;;;6.99;65.21;99121.12;1801782;79;21040;-69
2021/04/21 04:35:38;;;;;;;39.15;20.52;;;;;;;7.14;65.04;99123.05;1808745;79;21040;-69
2021/04/21 04:38:05;;;;;;;34.83;20.05;;;;;;;7.46;65.24;99120.84;1775838;78;21170;-69
2021/04/21 04:40:33;;;;;;;28.52;17.02;;;;;;;7.92;65.06;99123.95;1802729;78;21166;-69
2021/04/21 04:43:01;;;;;;;27.35;17.50;;;;;;;8.32;64.77;99120.78;1803273;79;22327;-69
2021/04/21 04:45:31;;;;;;;21.73;16.25;;;;;;;8.82;64.79;99118.82;1802761;79;21004;-69
2021/04/21 04:48:03;;;;;;;24.67;17.82;;;;;;;9.27;64.43;99115.67;1807245;79;21222;-69
2021/04/21 04:50:34;;;;;;;44.90;17.32;;;;;;;9.51;63.87;99110.93;1805001;78;21156;-68
2021/04/21 04:53:02;;;;;;;69.62;20.23;;;;;;;9.75;63.80;99111.88;1806639;79;21128;-69
2021/04/21 04:55:29;;;;;;;79.70;19.42;;;;;;;9.93;63.67;99109.56;1817625;78;21798;-69
2021/04/21 04:57:57;;;;;;;;;;;;;;;10.16;63.61;99104.85;1822367;78;21586;-69
2021/04/21 05:00:27;;;;;;;69.60;20.08;;;;;;;10.57;63.43;99109.56;1819705;78;20610;-69
2021/04/21 05:03:24;;;;;;;100.92;24.80;;;;;;;10.87;63.28;99102.57;1817209;78;21574;-69
2021/04/21 05:05:58;;;;;;;131.60;24.40;;;;;;;11.14;63.12;99097.95;1817484;78;21662;-69
2021/04/21 05:08:42;;;;;;;108.07;22.90;;;;;;;11.46;62.90;99096.50;1819871;78;21256;-69
2021/04/21 05:11:15;;;;;;;97.62;21.07;;;;;;;11.76;62.92;99095.92;1821278;78;21162;-69
2021/04/21 05:13:49;;;;;;;95.50;23.70;;;;;;;12.18;62.72;99090.23;1819673;78;21197;-72
2021/04/21 05:16:27;;;;;;;115.88;24.40;;;;;;;12.55;62.47;99095.73;1817430;78;20981;-72
2021/04/21 05:19:18;;;;;;;100.92;24.05;;;;;;;12.87;62.14;99090.14;1818670;78;21600;-73
2021/04/21 05:22:36;;;;;;;73.95;20.05;;;;;;;13.19;62.04;99088.82;1822858;77;21553;-71
2021/04/21 05:25:46;;;;;;;31.85;17.12;;;;;;;13.53;61.77;99081.28;1815677;78;21643;-72
2021/04/21 05:32:02;;;;;;;32.53;16.12;;;;;;;14.19;61.29;99077.07;1588255;87;21222;-72
2021/04/21 05:34:49;;;;;;;33.60;16.27;;;;;;;14.46;61.20;99084.73;1601388;87;21202;-74
2021/04/21 05:37:59;;;;;;;31.68;17.12;;;;;;;14.70;60.72;99084.72;1600386;88;22598;-74
2021/04/21 05:41:02;;;;;;;41.65;15.55;;;;;;;15.02;61.06;99081.49;1604684;87;21254;-72
2021/04/21 05:43:46;;;;;;;28.77;13.48;;;;;;;15.65;60.81;99084.04;1602528;87;21162;-75
2021/04/21 05:46:39;;;;;;;44.50;14.55;;;;;;;16.14;60.82;99084.14;1604954;88;21317;-73
2021/04/21 05:49:37;;;;;;;23.57;12.15;;;;;;;16.86;60.58;99081.37;1605602;88;21262;-72
2021/04/21 05:52:30;;;;;;;28.07;13.15;;;;;;;17.22;59.46;99074.34;1602637;88;21329;-75
2021/04/21 05:55:14;;;;;;;50.55;14.55;;;;;;;17.32;59.58;99073.55;1596674;88;21215;-72
2021/04/21 05:57:53;;;;;;;35.03;13.45;;;;;;;17.55;58.52;99065.80;1611264;87;21281;-71
2021/04/21 06:01:02;;;;;;;28.40;13.10;;;;;;;17.69;58.95;99072.52;1609781;86;21295;-70
2021/04/21 06:03:32;;;;;;;21.33;12.63;;;;;;;17.90;58.59;99072.48;1611655;87;21221;-72
2021/04/21 06:06:04;;;;;;;27.42;11.85;;;;;;;18.23;58.23;99066.48;1612058;87;21300;-74
2021/04/21 06:08:33;;;;;;;29.98;12.37;;;;;;;18.31;57.48;99067.95;1602833;88;21059;-71
2021/04/21 06:11:01;;;;;;;19.27;13.48;;;;;;;18.32;57.15;99064.36;1600982;88;21614;-74
2021/04/21 06:13:33;;;;;;;29.32;12.82;;;;;;;18.45;57.35;99072.84;1604753;88;21752;-70
2021/04/21 06:16:01;;;;;;;38.40;12.60;;;;;;;18.79;56.67;99072.44;1577349;89;21266;-72
2021/04/21 06:18:28;;;;;;;22.87;11.45;;;;;;;18.82;55.78;99072.19;1600782;88;21298;-71
2021/04/21 06:20:55;;;;;;;29.25;11.22;;;;;;;18.64;55.79;99065.89;1599802;88;21308;-71
2021/04/21 06:23:29;;;;;;;19.45;11.70;;;;;;;18.54;55.42;99062.77;1612966;87;21620;-71
2021/04/21 06:26:02;;;;;;;18.45;11.78;;;;;;;18.24;54.44;99062.89;1610470;87;21727;-73
2021/04/21 06:28:30;;;;;;;16.05;11.65;;;;;;;18.20;55.28;99068.09;1599306;88;21258;-70
2021/04/21 06:31:11;;;;;;;29.67;12.03;;;;;;;18.51;54.84;99060.88;1608928;87;21307;-71
2021/04/21 06:33:44;;;;;;;19.75;11.68;;;;;;;18.50;54.56;99061.36;1598773;88;21240;-70
2021/04/21 06:36:14;;;;;;;19.65;11.60;;;;;;;18.66;53.95;99059.98;1597352;88;21230;-70
2021/04/21 06:38:42;;;;;;;45.00;12.78;;;;;;;18.68;53.68;99054.91;1596829;87;21209;-70
2021/04/21 06:41:09;;;;;;;40.80;12.68;;;;;;;18.59;53.53;99061.02;1595451;88;21194;-71
2021/04/21 06:43:38;;;;;;;49.48;12.18;;;;;;;18.87;53.43;99061.99;1595537;88;22199;-70
2021/04/21 06:46:10;;;;;;;77.75;14.50;;;;;;;18.88;53.14;99057.06;1595614;88;21269;-71
2021/04/21 06:48:37;;;;;;;20.17;10.72;;;;;;;19.04;52.87;99055.63;1599880;88;21238;-71
2021/04/21 06:51:15;;;;;;;24.77;11.12;;;;;;;19.16;52.43;99058.48;1600096;88;21200;-71
2021/04/21 06:53:45;;;;;;;45.48;11.68;;;;;;;19.11;52.30;99059.39;1609121;88;21198;-70
2021/04/21 06:56:13;;;;;;;19.00;10.20;;;;;;;19.10;51.83;99051.09;1610087;88;22352;-71
2021/04/21 06:58:41;;;;;;;21.35;9.78;;;;;;;19.08;51.72;99053.06;1577257;89;21270;-70
2021/04/21 07:01:12;;;;;;;22.32;10.15;;;;;;;19.07;51.12;99051.38;1572132;89;21124;-71
2021/04/21 07:03:41;;;;;;;17.75;10.10;;;;;;;19.00;50.53;99052.45;1595924;88;21671;-71
2021/04/21 07:06:08;;;;;;;21.93;9.65;;;;;;;18.97;51.03;99049.59;1575278;88;21228;-71
2021/04/21 07:08:58;;;;;;;11.83;7.95;;;;;;;19.18;50.75;99049.88;1599803;88;21236;-71
2021/04/21 07:11:26;;;;;;;20.82;8.68;;;;;;;18.49;48.36;99045.66;1659886;84;21274;-69
2021/04/21 07:13:53;;;;;;;31.42;9.50;;;;;;;18.00;49.40;99052.20;1659457;84;21247;-69
2021/04/21 07:16:25;;;;;;;24.23;9.75;;;;;;;17.53;48.78;99049.27;1655339;84;21716;-70
2021/04/21 07:18:57;;;;;;;33.60;10.13;;;;;;;17.33;49.90;99050.14;1659243;84;21237;-70
2021/04/21 07:21:27;;;;;;;27.37;8.80;;;;;;;17.40;49.99;99047.34;1653032;84;22307;-71
2021/04/21 07:23:57;;;;;;;23.62;9.90;;;;;;;17.34;49.85;99041.28;1651501;84;21244;-71
2021/04/21 07:26:35;;;;;;;10.55;7.83;;;;;;;17.26;49.48;99037.14;1651956;84;21425;-71
2021/04/21 07:29:04;;;;;;;14.43;7.65;;;;;;;17.15;49.43;99042.84;1659824;84;21226;-70
2021/04/21 07:31:39;;;;;;;11.70;8.15;;;;;;;16.97;49.17;99031.20;1650425;84;21253;-69
2021/04/21 07:34:12;;;;;;;18.00;7.83;;;;;;;16.76;48.97;99034.69;1646735;85;22656;-72
2021/04/21 07:36:49;;;;;;;18.75;7.72;;;;;;;16.71;49.08;99033.37;1637598;85;21302;-71
2021/04/21 07:39:17;;;;;;;53.52;9.60;;;;;;;16.64;48.74;99043.60;1630772;85;21197;-72
2021/04/21 07:41:49;;;;;;;17.77;7.05;;;;;;;16.49;48.38;99036.95;1637737;84;21641;-69
2021/04/21 07:44:51;;;;;;;20.68;8.23;;;;;;;16.28;48.28;99044.83;1639380;85;21622;-71
2021/04/21 07:50:10;;;;;;;28.95;7.72;;;;;;;16.03;48.15;99045.98;1630120;85;21689;-71
2021/04/21 07:52:38;;;;;;;12.90;5.80;;;;;;;15.99;48.04;99042.77;1633838;86;21184;-71
2021/04/21 07:55:21;;;;;;;14.75;5.80;;;;;;;15.72;47.12;99037.91;1627799;86;21258;-71
2021/04/21 07:58:00;;;;;;;27.60;6.92;;;;;;;15.47;47.27;99035.51;1631736;86;21207;-71
2021/04/21 08:00:31;;;;;;;84.67;9.75;;;;;;;15.46;47.18;99035.99;1635141;86;21245;-70
2021/04/21 08:03:00;;;;;;;42.65;7.03;;;;;;;15.32;47.19;99038.38;1636272;85;22380;-70
2021/04/21 08:05:28;;;;;;;12.58;5.37;;;;;;;15.39;47.23;99029.03;1607456;86;21259;-70
2021/04/21 08:08:02;;;;;;;10.93;5.40;;;;;;;15.50;47.14;99025.57;1634461;86;21273;-70
2021/04/21 08:10:37;;;;;;;17.87;5.67;;;;;;;15.48;46.76;99030.59;1631960;86;21187;-71
2021/04/21 08:13:04;;;;;;;38.58;6.50;;;;;;;15.56;47.07;99033.45;1628583;84;21287;-71
2021/04/21 08:15:34;;;;;;;17.40;5.90;;;;;;;15.74;46.88;99020.20;1628063;85;21216;-71
2021/04/21 08:18:11;;;;;;;17.10;5.70;;;;;;;15.77;46.56;99027.85;1627487;86;20978;-71
2021/04/21 08:20:45;;;;;;;20.10;5.00;;;;;;;15.76;46.41;99028.79;1634188;86;21057;-71
2021/04/21 08:23:17;;;;;;;24.35;5.70;;;;;;;15.77;46.28;99030.48;1627876;85;21095;-71
2021/04/21 08:25:44;;;;;;;19.27;5.42;;;;;;;15.81;46.33;99026.63;1633105;86;21229;-71
2021/04/21 08:28:12;;;;;;;26.73;6.17;;;;;;;15.87;46.27;99030.57;1631963;86;21645;-71
2021/04/21 08:30:53;;;;;;;7.15;4.72;;;;;;;15.73;45.44;99023.77;1633505;86;21060;-71
2021/04/21 08:33:27;;;;;;;9.58;4.35;;;;;;;15.52;45.43;99025.47;1629493;86;20997;-71
2021/04/21 08:35:55;;;;;;;9.33;3.98;;;;;;;15.61;45.69;99026.05;1639453;86;21040;-71
2021/04/21 08:38:22;;;;;;;;;;;;;;;15.70;45.22;99023.19;1633584;85;21300;-70
2021/04/21 08:40:49;;;;;;;15.78;5.00;;;;;;;15.56;43.63;99022.94;1632648;85;26863;-71
2021/04/21 08:43:17;;;;;;;43.13;5.75;;;;;;;15.44;45.24;99021.62;1629026;86;27225;-69
2021/04/21 08:45:45;;;;;;;11.78;4.22;;;;;;;15.71;45.46;99025.72;1637401;86;21548;-71
2021/04/21 08:48:13;;;;;;;11.18;3.98;;;;;;;15.98;45.32;99027.08;1635602;85;21128;-70
2021/04/21 08:50:41;;;;;;;17.20;3.70;;;;;;;16.02;44.85;99017.96;1643121;85;21591;-71
2021/04/21 08:53:10;;;;;;;26.00;4.72;;;;;;;16.01;44.00;99027.66;1646973;85;21191;-72
2021/04/21 08:55:38;;;;;;;8.08;3.75;;;;;;;16.06;44.73;99027.30;1647694;85;21140;-72
2021/04/21 09:00:46;;;;;;;10.72;3.50;;;;;;;16.39;44.05;99018.94;1788434;78;22382;-70
2021/04/21 09:03:15;;;;;;;4.92;2.35;;;;;;;16.50;44.20;99025.47;1767259;79;21090;-70
2021/04/21 09:07:39;;;;;;;6.60;2.98;;;;;;;16.27;42.91;99016.34;1763200;78;22191;-68
2021/04/21 09:10:11;;;;;;;10.08;3.08;;;;;;;16.16;43.06;99016.39;1740549;81;24939;-68
2021/04/21 09:12:39;;;;;;;13.62;2.90;;;;;;;16.08;43.08;99014.86;1734878;80;21355;-69
2021/04/21 09:15:10;;;;;;;18.92;3.52;;;;;;;16.21;43.04;99011.55;1735607;80;21097;-72
2021/04/21 09:17:47;;;;;;;6.00;2.95;;;;;;;16.01;39.93;99013.67;1740021;81;21068;-68
2021/04/21 09:20:19;;;;;;;7.45;3.55;;;;;;;15.63;41.80;99012.30;1729289;81;21600;-72
2021/04/21 09:25:55;;;;;;;23.12;3.52;;;;;;;15.51;41.43;99010.62;1649478;85;21229;-72
2021/04/21 09:28:44;;;;;;;13.05;3.10;;;;;;;15.54;39.53;99010.37;1661081;84;21033;-70
2021/04/21 09:31:23;;;;;;;6.83;3.50;;;;;;;15.41;41.01;99000.83;1703442;82;21140;-77
2021/04/21 09:34:16;;;;;;;10.70;2.98;;;;;;;15.30;41.45;99003.47;1700342;82;21077;-71
2021/04/21 09:36:47;;;;;;;7.92;3.40;;;;;;;15.50;41.42;99001.06;1694976;82;21247;-72
2021/04/21 09:39:19;;;;;;;15.88;3.35;;;;;;;15.38;37.97;99002.39;1701092;82;21394;-71
2021/04/21 09:41:49;;;;;;;17.30;3.30;;;;;;;15.32;40.67;98991.04;1698845;82;21275;-72
2021/04/21 09:47:08;;;;;;;19.85;4.03;;;;;;;16.09;41.63;98984.91;1753376;78;28806;-75
2021/04/21 09:49:40;;;;;;;13.35;4.28;;;;;;;16.39;41.66;98986.00;1749254;80;21904;-72
2021/04/21 09:52:22;;;;;;;11.90;3.40;;;;;;;16.69;41.42;98983.44;1773697;79;21364;-75
2021/04/21 09:54:51;;;;;;;13.70;3.85;;;;;;;16.85;41.37;98975.56;1772366;80;21610;-71
2021/04/21 09:57:31;;;;;;;6.37;3.08;;;;;;;16.61;39.76;98974.02;1768216;80;21606;-71
2021/04/21 10:00:08;;;;;;;18.42;3.08;;;;;;;16.24;40.36;98979.69;1773216;79;21207;-70
2021/04/21 10:02:40;;;;;;;9.63;4.10;;;;;;;16.38;41.00;98976.41;1768852;79;21199;-71
2021/04/21 10:05:35;;;;;;;10.15;3.15;;;;;;;16.61;41.02;98972.70;1767573;79;21157;-71
2021/04/21 10:08:24;;;;;;;18.27;3.92;;;;;;;16.52;39.35;98976.95;1766671;79;21025;-75
2021/04/21 10:11:04;;;;;;;8.05;2.77;;;;;;;15.95;39.30;98974.67;1766312;80;21182;-72
2021/04/21 10:13:46;;;;;;;9.93;3.15;;;;;;;15.98;39.73;98977.06;1770687;78;21200;-72
2021/04/21 10:16:14;;;;;;;9.65;3.55;;;;;;;16.03;40.11;98970.94;1721848;81;21314;-73
2021/04/21 10:18:43;;;;;;;4.53;2.75;;;;;;;15.86;39.41;98972.31;1712883;81;21274;-72
2021/04/21 10:21:13;;;;;;;8.18;3.67;;;;;;;15.86;38.88;98974.46;1717706;81;21695;-71
2021/04/21 10:23:43;;;;;;;17.52;4.83;;;;;;;15.88;39.63;98968.59;1718896;81;21179;-71
2021/04/21 10:26:18;;;;;;;36.85;4.97;;;;;;;16.12;39.60;98963.59;1802644;78;22434;-71
2021/04/21 10:28:46;;;;;;;15.30;3.67;;;;;;;16.23;39.77;98963.55;1764329;79;21034;-71
2021/04/21 10:31:17;;;;;;;19.62;4.00;;;;;;;16.41;39.78;98959.88;1768678;80;21199;-71
2021/04/21 10:33:48;;;;;;;21.55;4.62;;;;;;;16.47;39.53;98963.31;1763395;80;21109;-72
2021/04/21 10:36:14;;;;;;;22.17;3.80;;;;;;;16.55;39.73;98967.92;1767947;79;21062;-71
2021/04/21 10:38:42;;;;;;;40.98;4.78;;;;;;;16.67;39.55;98964.27;1769779;79;21062;-72
2021/04/21 10:41:35;;;;;;;11.65;3.75;;;;;;;16.72;39.53;98965.18;1767480;80;21049;-71
2021/04/21 10:44:15;;;;;;;11.45;2.92;;;;;;;16.67;39.02;98953.73;1767495;80;21194;-70
2021/04/21 10:47:02;;;;;;;7.17;3.33;;;;;;;16.62;39.12;98966.45;1761835;79;21080;-71
2021/04/21 10:50:06;;;;;;;11.05;3.27;;;;;;;16.60;39.25;98949.92;1767597;79;21029;-72
2021/04/21 10:52:39;;;;;;;8.15;3.62;;;;;;;16.54;38.72;98955.23;1767992;79;21768;-73
2021/04/21 10:55:18;;;;;;;9.43;4.78;;;;;;;16.08;38.03;98951.66;1765183;80;21143;-71
2021/04/21 10:58:03;;;;;;;12.23;3.50;;;;;;;16.09;38.75;98950.69;1769488;79;21405;-70
2021/04/21 11:00:35;;;;;;;10.70;4.45;;;;;;;16.36;38.63;98946.73;1767385;79;22046;-71
2021/04/21 11:03:12;;;;;;;8.78;4.12;;;;;;;16.25;38.14;98932.66;1765458;80;21328;-73
2021/04/21 11:05:53;;;;;;;18.27;4.58;;;;;;;15.80;36.42;98948.64;1772782;78;21167;-74
2021/04/21 11:08:24;;;;;;;15.40;4.58;;;;;;;15.52;37.28;98948.69;1773918;80;21162;-73
2021/04/21 11:11:03;;;;;;;17.95;4.62;;;;;;;15.63;38.00;98941.25;1773906;78;21198;-72
2021/04/21 11:13:38;;;;;;;10.08;3.62;;;;;;;15.84;37.81;98938.20;1770517;79;21254;-71
2021/04/21 11:16:26;;;;;;;17.98;3.92;;;;;;;15.76;37.81;98947.20;1769029;79;21238;-71
2021/04/21 11:18:54;;;;;;;13.65;4.45;;;;;;;15.44;37.13;98937.45;1767757;80;21096;-68
2021/04/21 11:21:24;;;;;;;25.65;4.03;;;;;;;14.98;36.80;98943.72;1772020;79;21215;-68
2021/04/21 11:23:59;;;;;;;7.15;2.72;;;;;;;14.68;37.04;98940.83;1739576;80;22183;-69
2021/04/21 11:26:31;;;;;;;15.40;3.20;;;;;;;14.73;37.40;98945.22;1778611;79;21222;-69
2021/04/21 11:29:15;;;;;;;7.53;3.67;;;;;;;15.06;36.82;98940.95;1782224;79;21244;-68
2021/04/21 11:34:27;;;;;;;19.35;4.78;;;;;;;15.60;37.00;98934.89;1777071;80;21312;-68
2021/04/21 11:37:19;;;;;;;17.70;3.77;;;;;;;15.79;37.20;98935.59;1767159;80;21279;-67
2021/04/21 11:39:52;;;;;;;10.65;3.77;;;;;;;16.07;36.89;98928.90;1768367;80;21614;-66
2021/04/21 11:42:40;;;;;;;10.20;3.05;;;;;;;15.83;35.02;98940.49;1764628;80;21140;-67
2021/04/21 11:45:24;;;;;;;9.53;3.52;;;;;;;15.79;35.85;98939.54;1765534;80;21271;-66
2021/04/21 11:48:07;;;;;;;10.85;3.60;;;;;;;15.78;35.96;98931.30;1772782;80;21156;-66
2021/04/21 11:50:43;;;;;;;13.35;3.87;;;;;;;15.64;34.93;98929.75;1772727;80;22608;-66
2021/04/21 11:53:24;;;;;;;44.55;6.80;;;;;;;15.76;35.10;98921.37;1774110;80;21174;-66
2021/04/21 11:55:57;;;;;;;24.23;5.42;;;;;;;16.00;36.22;98917.22;1775385;80;21187;-66
2021/04/21 11:58:28;;;;;;;53.05;5.60;;;;;;;16.30;36.11;98913.36;1772510;80;21161;-66
2021/04/21 12:01:13;;;;;;;37.13;5.15;;;;;;;16.70;36.21;98908.66;1773619;80;21135;-65
2021/04/21 12:03:46;;;;;;;25.23;3.95;;;;;;;17.10;36.20;98927.66;1768681;80;21232;-66
2021/04/21 12:06:16;;;;;;;4.47;3.37;;;;;;;17.21;35.00;98931.52;1769696;80;21076;-66
2021/04/21 12:08:51;;;;;;;58.00;5.80;;;;;;;17.17;35.36;98919.57;1766671;80;21288;-67
2021/04/21 12:11:29;;;;;;;57.83;6.85;;;;;;;17.25;35.62;98922.84;1765704;80;21204;-66
2021/04/21 12:13:56;;;;;;;28.73;4.97;;;;;;;17.53;35.71;98920.41;1771882;80;21132;-66
2021/04/21 12:16:27;;;;;;;55.25;6.40;;;;;;;17.81;35.59;98921.45;1771919;80;22191;-67
2021/04/21 12:18:59;;;;;;;57.48;7.20;;;;;;;18.01;35.56;98908.61;1771419;78;21760;-66
2021/04/21 12:21:33;;;;;;;47.48;6.50;;;;;;;17.96;35.27;98921.40;1769736;78;21140;-66
2021/04/21 12:24:06;;;;;;;13.13;4.60;;;;;;;17.45;34.88;98911.87;1768638;80;21468;-66
2021/04/21 12:26:36;;;;;;;12.65;4.35;;;;;;;16.93;34.55;98923.02;1769013;80;21597;-66
2021/04/21 12:29:13;;;;;;;8.68;4.17;;;;;;;16.27;34.25;98920.20;1767202;80;21242;-66